createdAt,value
2023-01-12T00:04:48.774Z,6.63
2023-01-12T00:09:50.209Z,6.63
2023-01-12T00:14:53.107Z,5.82
2023-01-12T00:19:54.705Z,6.57
2023-01-12T00:24:56.145Z,6.25
2023-01-12T00:29:57.670Z,3.47
2023-01-12T00:34:59.372Z,5.72
2023-01-12T00:40:03.084Z,5.60
2023-01-12T00:45:23.682Z,5.80
2023-01-12T00:50:25.135Z,2.45
2023-01-12T00:55:26.580Z,3.17
2023-01-12T01:00:28.000Z,4.60
2023-01-12T01:05:30.545Z,5.38
2023-01-12T01:10:31.986Z,7.75
2023-01-12T01:15:33.509Z,6.35
2023-01-12T01:20:36.620Z,4.03
2023-01-12T01:25:38.058Z,7.47
2023-01-12T01:30:39.498Z,6.05
2023-01-12T01:35:40.940Z,5.82
2023-01-12T01:40:43.460Z,4.80
2023-01-12T01:45:58.015Z,7.07
2023-01-12T01:56:08.209Z,4.22
2023-01-12T02:01:10.841Z,3.35
2023-01-12T02:06:13.474Z,4.28
2023-01-12T02:11:34.551Z,6.15
2023-01-12T02:16:44.442Z,6.43
2023-01-12T02:22:10.471Z,6.32
2023-01-12T02:27:34.059Z,4.68
2023-01-12T02:32:51.679Z,3.80
2023-01-12T02:38:31.702Z,7.20
2023-01-12T02:43:36.242Z,4.97
2023-01-12T02:49:13.069Z,5.63
2023-01-12T02:59:50.467Z,4.75
2023-01-12T03:04:53.123Z,4.97
2023-01-12T03:10:02.943Z,5.68
2023-01-12T03:15:08.506Z,9.32
2023-01-12T03:20:23.972Z,4.85
2023-01-12T03:25:26.934Z,4.32
2023-01-12T03:30:46.037Z,4.53
2023-01-12T03:35:57.073Z,4.28
2023-01-12T03:41:10.231Z,3.80
2023-01-12T03:46:19.087Z,6.70
2023-01-12T03:51:25.540Z,3.67
2023-01-12T03:56:31.489Z,5.50
2023-01-12T04:01:33.254Z,5.00
2023-01-12T04:06:34.779Z,6.80
2023-01-12T04:11:55.067Z,4.53
2023-01-12T04:16:56.532Z,3.85
2023-01-12T04:22:16.718Z,8.45
2023-01-12T04:27:18.727Z,6.15
2023-01-12T04:32:20.684Z,6.97
2023-01-12T04:42:41.827Z,4.28
2023-01-12T04:47:43.449Z,2.60
2023-01-12T04:52:45.301Z,7.63
2023-01-12T05:02:48.383Z,6.85
2023-01-12T05:08:08.358Z,9.13
2023-01-12T05:13:09.803Z,7.65
2023-01-12T05:18:11.277Z,11.25
2023-01-12T05:23:12.720Z,8.73
2023-01-12T05:28:14.180Z,8.30
2023-01-12T05:33:16.383Z,8.70
2023-01-12T05:38:17.995Z,7.05
2023-01-12T05:43:38.078Z,3.75
2023-01-12T05:48:39.536Z,6.95
2023-01-12T05:53:42.115Z,6.90
2023-01-12T05:58:43.921Z,3.88
2023-01-12T06:03:49.674Z,8.73
2023-01-12T06:08:52.676Z,5.78
2023-01-12T06:13:57.226Z,3.63
2023-01-12T06:18:58.700Z,4.22
2023-01-12T06:24:00.311Z,4.78
2023-01-12T06:29:03.486Z,4.28
2023-01-12T06:34:07.471Z,6.47
2023-01-12T06:39:09.146Z,7.25
2023-01-12T06:44:10.601Z,4.85
2023-01-12T06:49:12.082Z,7.32
2023-01-12T06:54:13.516Z,8.20
2023-01-12T06:59:14.991Z,9.10
2023-01-12T07:04:16.435Z,6.55
2023-01-12T07:09:17.878Z,7.50
2023-01-12T07:14:19.314Z,8.63
2023-01-12T07:19:20.985Z,6.22
2023-01-12T07:24:22.459Z,3.97
2023-01-12T07:29:24.701Z,9.02
2023-01-12T07:34:26.180Z,5.82
2023-01-12T07:39:27.615Z,8.27
2023-01-12T07:44:29.100Z,5.75
2023-01-12T07:49:30.561Z,5.30
2023-01-12T07:54:33.605Z,6.43
2023-01-12T07:59:35.039Z,7.40
2023-01-12T08:04:36.491Z,4.63
2023-01-12T08:09:38.139Z,6.43
2023-01-12T08:14:41.698Z,6.78
2023-01-12T08:19:49.140Z,5.40
2023-01-12T08:24:56.704Z,3.53
2023-01-12T08:29:59.869Z,5.90
2023-01-12T08:35:03.244Z,3.20
2023-01-12T08:40:05.673Z,6.40
2023-01-12T08:45:08.240Z,5.65
2023-01-12T08:50:10.576Z,5.25
2023-01-12T08:55:12.072Z,6.03
2023-01-12T09:00:13.961Z,4.03
2023-01-12T09:05:16.510Z,6.13
2023-01-12T09:10:18.102Z,6.85
2023-01-12T09:15:19.621Z,5.45
2023-01-12T09:20:21.955Z,5.63
2023-01-12T09:25:23.398Z,2.35
2023-01-12T09:30:24.848Z,4.32
2023-01-12T09:35:26.307Z,7.93
2023-01-12T09:40:27.766Z,3.20
2023-01-12T09:45:47.977Z,1.95
2023-01-12T09:51:05.822Z,5.97
2023-01-12T09:56:21.496Z,4.47
2023-01-12T10:01:29.279Z,8.48
2023-01-12T10:06:33.111Z,4.10
2023-01-12T10:12:12.279Z,3.78
2023-01-12T10:17:25.463Z,3.38
2023-01-12T10:22:39.496Z,4.03
2023-01-12T10:27:44.307Z,4.15
2023-01-12T10:32:45.927Z,5.53
2023-01-12T10:37:51.500Z,4.07
2023-01-12T10:43:21.674Z,5.20
2023-01-12T10:48:23.614Z,5.25
2023-01-12T10:54:02.352Z,4.18
2023-01-12T10:59:15.143Z,4.05
2023-01-12T11:04:22.046Z,2.80
2023-01-12T11:09:25.980Z,4.93
2023-01-12T11:14:33.609Z,3.25
2023-01-12T11:19:39.525Z,5.15
2023-01-12T11:24:52.975Z,5.97
2023-01-12T11:29:59.534Z,4.82
2023-01-12T11:35:05.447Z,3.33
2023-01-12T11:40:22.561Z,4.25
2023-01-12T11:45:42.335Z,2.60
2023-01-12T11:50:45.698Z,4.90
2023-01-12T11:56:12.164Z,3.03
2023-01-12T12:01:31.883Z,2.65
2023-01-12T12:06:45.371Z,3.78
2023-01-12T12:11:57.287Z,4.80
2023-01-12T12:17:16.178Z,3.33
2023-01-12T12:22:46.358Z,1.17
2023-01-12T12:28:12.115Z,1.23
2023-01-12T12:33:31.120Z,3.97
2023-01-12T12:39:25.167Z,2.60
2023-01-12T12:44:53.414Z,3.42
2023-01-12T12:49:57.620Z,2.55
2023-01-12T12:54:59.339Z,3.67
2023-01-12T13:05:05.750Z,3.97
2023-01-12T13:10:30.735Z,2.53
2023-01-12T13:15:37.129Z,2.15
2023-01-12T13:20:56.537Z,2.80
2023-01-12T13:25:58.111Z,0.95
2023-01-12T13:31:00.319Z,3.38
2023-01-12T13:36:10.306Z,3.20
2023-01-12T13:41:15.333Z,1.27
2023-01-12T13:46:32.359Z,1.92
2023-01-12T13:51:41.104Z,2.10
2023-01-12T13:56:43.352Z,1.75
2023-01-12T14:01:47.572Z,2.08
2023-01-12T14:07:14.743Z,1.85
2023-01-12T14:12:45.616Z,2.55
2023-01-12T14:17:50.030Z,1.88
2023-01-12T14:23:08.178Z,1.98
2023-01-12T14:28:21.461Z,1.92
2023-01-12T14:33:26.341Z,1.75
2023-01-12T14:38:28.858Z,1.00
2023-01-12T14:43:51.806Z,1.33
2023-01-12T14:49:23.694Z,2.58
2023-01-12T14:54:28.288Z,2.05
2023-01-12T14:59:32.867Z,2.80
2023-01-12T15:04:34.326Z,1.52
2023-01-12T15:09:50.798Z,2.58
2023-01-12T15:14:52.245Z,3.42
2023-01-12T15:20:12.370Z,1.00
2023-01-12T15:25:35.117Z,1.52
2023-01-12T15:30:38.345Z,2.25
2023-01-12T15:35:45.899Z,1.55
2023-01-12T15:40:47.999Z,1.05
2023-01-12T15:45:49.659Z,1.55
2023-01-12T15:55:52.535Z,2.10
2023-01-12T16:00:54.245Z,2.78
2023-01-12T16:16:42.457Z,2.63
2023-01-12T16:21:44.292Z,1.45
2023-01-12T16:26:45.910Z,2.58
2023-01-12T16:31:47.860Z,2.22
2023-01-12T16:36:49.855Z,1.90
2023-01-12T16:41:53.181Z,3.03
2023-01-12T16:46:54.613Z,3.10
2023-01-12T16:51:56.760Z,2.13
2023-01-12T16:56:58.841Z,2.08
2023-01-12T17:02:00.400Z,2.63
2023-01-12T17:07:03.033Z,1.00
2023-01-12T17:12:05.161Z,3.70
2023-01-12T17:17:09.331Z,2.88
2023-01-12T17:22:11.829Z,1.58
2023-01-12T17:27:13.940Z,1.08
2023-01-12T17:32:16.183Z,2.67
2023-01-12T17:37:17.649Z,2.65
2023-01-12T17:42:37.759Z,1.67
2023-01-12T17:47:39.192Z,2.33
2023-01-12T17:52:40.728Z,3.70
2023-01-12T17:57:42.267Z,1.73
2023-01-12T18:02:43.776Z,2.95
2023-01-12T18:07:45.281Z,1.17
2023-01-12T18:12:46.782Z,4.30
2023-01-12T18:17:48.223Z,2.67
2023-01-12T18:22:50.037Z,3.47
2023-01-12T18:27:51.729Z,1.42
2023-01-12T18:37:55.012Z,1.90
2023-01-12T18:48:17.572Z,1.92
2023-01-12T18:53:25.759Z,2.22
2023-01-12T18:58:30.563Z,1.58
2023-01-12T19:03:32.050Z,1.55
2023-01-12T19:08:52.145Z,2.33
2023-01-12T19:14:12.114Z,1.42
2023-01-12T19:19:13.559Z,2.50
2023-01-12T19:24:33.632Z,2.60
2023-01-12T19:29:35.431Z,1.27
2023-01-12T19:34:36.874Z,4.38
2023-01-12T19:40:00.181Z,3.38
2023-01-12T19:45:06.228Z,1.83
2023-01-12T19:50:09.554Z,1.83
2023-01-12T19:55:13.933Z,1.00
2023-01-12T20:00:15.953Z,2.00
2023-01-12T20:05:22.543Z,1.23
2023-01-12T20:10:24.330Z,0.88
2023-01-12T20:15:25.956Z,0.82
2023-01-12T20:20:28.369Z,1.30
2023-01-12T20:25:29.871Z,1.50
2023-01-12T20:30:37.928Z,0.35
2023-01-12T20:35:46.213Z,0.98
2023-01-12T20:40:47.697Z,1.73
2023-01-12T20:45:50.086Z,1.45
2023-01-12T20:50:51.968Z,1.38
2023-01-12T20:55:53.416Z,2.28
2023-01-12T21:00:54.973Z,1.05
2023-01-12T21:10:58.494Z,1.10
2023-01-12T21:16:01.804Z,1.45
2023-01-12T21:21:04.375Z,1.85
2023-01-12T21:26:07.920Z,2.50
2023-01-12T21:31:12.218Z,2.50
2023-01-12T21:36:14.330Z,1.45
2023-01-12T21:41:15.765Z,0.43
2023-01-12T21:46:18.236Z,0.82
2023-01-12T21:51:19.726Z,1.02
2023-01-12T21:56:21.171Z,1.05
2023-01-12T22:01:22.667Z,2.00
2023-01-12T22:06:24.178Z,1.95
2023-01-12T22:11:25.903Z,1.05
2023-01-12T22:16:27.429Z,1.38
2023-01-12T22:21:28.888Z,0.75
2023-01-12T22:26:32.607Z,1.52
2023-01-12T22:31:34.119Z,0.88
2023-01-12T22:36:43.023Z,0.40
2023-01-12T22:41:44.601Z,0.68
2023-01-12T22:46:46.057Z,0.90
2023-01-12T22:51:47.494Z,0.73
2023-01-12T22:56:48.932Z,2.17
2023-01-12T23:01:50.469Z,0.80
2023-01-12T23:06:52.030Z,1.40
2023-01-12T23:11:53.600Z,0.68
2023-01-12T23:16:56.131Z,0.85
2023-01-12T23:22:00.768Z,1.00
2023-01-12T23:27:02.363Z,0.77
2023-01-12T23:37:05.440Z,1.80
2023-01-12T23:42:06.985Z,0.28
2023-01-12T23:47:08.982Z,0.90
2023-01-12T23:52:10.560Z,1.42
2023-01-12T23:57:12.132Z,1.23
